Search for airport 
image banner adimage banner adimage banner ad
image banner ad

L19 - Wasco-Kern County

Located in Wasco, United States

ICAO - L19, IATA -

Data provided by Airmate  

General information

Coordinates: N35°37'11" W119°21'13"
Elevation is 312 feet MSL.
Magnetic variation is 15° East
View others Airports in California

Operational data

Special qualification required
Current time UTC:
Current local time:
Weather at : KDLO - Delano Muni ( 18 km )
METAR: KDLO 240935Z AUTO 00000KT 10SM CLR 19/07 A2993 RMK AO2 T01910072
View NOTAMs / SUP AIP / TFR affecting this airport [VIEW]
Communications frequencies: [VIEW]

Runways:

RWY identifierQFULength (ft)Width (ft)SurfaceLDA (ft)
12135°338060ASPH
30315°338060ASPH

Airport contact information

Address: Wasco United States

Satellite view of L19